createdAt,value
2022-09-17T00:03:21.409Z,9.30
2022-09-17T00:08:24.041Z,9.30
2022-09-17T00:13:26.731Z,9.30
2022-09-17T00:18:29.487Z,9.30
2022-09-17T00:23:32.140Z,9.40
2022-09-17T00:28:34.879Z,9.40
2022-09-17T00:33:38.012Z,9.40
2022-09-17T00:38:40.807Z,9.50
2022-09-17T00:43:47.353Z,9.50
2022-09-17T00:48:50.781Z,9.50
2022-09-17T00:53:53.467Z,9.50
2022-09-17T00:59:00.214Z,9.60
2022-09-17T01:04:03.583Z,9.70
2022-09-17T01:09:39.337Z,9.60
2022-09-17T01:15:00.423Z,9.70
2022-09-17T01:20:27.971Z,9.70
2022-09-17T01:25:58.567Z,9.70
2022-09-17T01:31:31.676Z,9.70
2022-09-17T01:37:00.578Z,9.60
2022-09-17T01:42:41.060Z,9.70
2022-09-17T01:47:52.136Z,9.80
2022-09-17T01:52:56.864Z,9.80
2022-09-17T01:58:35.619Z,9.60
2022-09-17T02:03:44.631Z,9.70
2022-09-17T02:09:01.995Z,9.80
2022-09-17T02:14:10.330Z,9.80
2022-09-17T02:19:27.067Z,9.70
2022-09-17T02:24:38.740Z,10.00
2022-09-17T02:29:45.460Z,9.80
2022-09-17T02:34:48.100Z,9.90
2022-09-17T02:39:50.807Z,9.70
2022-09-17T02:45:12.370Z,9.80
2022-09-17T02:50:52.154Z,9.80
2022-09-17T02:56:00.640Z,9.60
2022-09-17T03:01:09.093Z,9.60
2022-09-17T03:06:12.149Z,9.60
2022-09-17T03:11:15.129Z,9.50
2022-09-17T03:16:18.182Z,9.50
2022-09-17T03:21:20.864Z,9.30
2022-09-17T03:26:24.146Z,9.30
2022-09-17T03:31:29.591Z,9.30
2022-09-17T03:36:32.339Z,9.10
2022-09-17T03:41:35.016Z,9.20
2022-09-17T03:46:38.117Z,9.10
2022-09-17T03:51:40.796Z,9.10
2022-09-17T03:56:43.441Z,9.10
2022-09-17T04:01:46.218Z,9.10
2022-09-17T04:06:49.336Z,9.10
2022-09-17T04:11:52.076Z,9.20
2022-09-17T04:16:54.720Z,9.10
2022-09-17T04:21:57.336Z,9.10
2022-09-17T04:27:01.990Z,9.10
2022-09-17T04:32:05.032Z,9.10
2022-09-17T04:37:07.730Z,9.00
2022-09-17T04:42:10.346Z,9.00
2022-09-17T04:47:13.006Z,9.10
2022-09-17T04:52:15.623Z,9.10
2022-09-17T04:57:18.330Z,9.10
2022-09-17T05:02:21.103Z,9.00
2022-09-17T05:07:23.924Z,9.10
2022-09-17T05:12:29.227Z,9.10
2022-09-17T05:17:34.212Z,9.00
2022-09-17T05:22:40.364Z,9.10
2022-09-17T05:27:43.744Z,9.00
2022-09-17T05:32:47.247Z,9.20
2022-09-17T05:37:49.870Z,9.00
2022-09-17T05:42:52.529Z,8.90
2022-09-17T05:47:56.917Z,8.90
2022-09-17T05:53:05.781Z,8.90
2022-09-17T05:58:18.906Z,8.80
2022-09-17T06:03:25.084Z,8.80
2022-09-17T06:08:29.017Z,8.80
2022-09-17T06:13:33.065Z,8.90
2022-09-17T06:18:35.772Z,8.90
2022-09-17T06:23:38.520Z,8.90
2022-09-17T06:28:41.989Z,8.80
2022-09-17T06:33:44.816Z,8.90
2022-09-17T06:38:47.451Z,8.80
2022-09-17T06:43:54.433Z,8.90
2022-09-17T06:48:57.093Z,8.90
2022-09-17T06:54:00.809Z,9.00
2022-09-17T06:59:06.411Z,9.10
2022-09-17T07:04:09.128Z,9.00
2022-09-17T07:09:12.503Z,9.10
2022-09-17T07:14:15.328Z,9.30
2022-09-17T07:19:18.045Z,9.30
2022-09-17T07:24:20.767Z,9.40
2022-09-17T07:29:26.386Z,9.50
2022-09-17T07:34:29.167Z,9.70
2022-09-17T07:39:32.072Z,9.60
2022-09-17T07:44:34.838Z,9.60
2022-09-17T07:49:37.510Z,9.70
2022-09-17T07:54:40.200Z,9.80
2022-09-17T07:59:42.825Z,10.00
2022-09-17T08:04:45.485Z,10.10
2022-09-17T08:09:48.117Z,10.10
2022-09-17T08:14:50.863Z,10.20
2022-09-17T08:19:54.584Z,10.40
2022-09-17T08:24:57.312Z,10.50
2022-09-17T08:30:00.018Z,10.80
2022-09-17T08:35:02.774Z,10.80
2022-09-17T08:40:05.905Z,11.00
2022-09-17T08:45:21.265Z,11.20
2022-09-17T08:50:39.104Z,11.10
2022-09-17T08:55:51.530Z,11.30
2022-09-17T09:01:02.691Z,11.40
2022-09-17T09:06:10.527Z,11.30
2022-09-17T09:11:22.351Z,11.40
2022-09-17T09:16:31.004Z,11.50
2022-09-17T09:21:48.219Z,11.60
2022-09-17T09:27:12.963Z,11.80
2022-09-17T09:32:18.661Z,12.20
2022-09-17T09:37:26.159Z,12.10
2022-09-17T09:42:34.860Z,12.10
2022-09-17T09:47:47.969Z,12.30
2022-09-17T09:53:16.718Z,11.70
2022-09-17T09:58:39.872Z,11.50
2022-09-17T10:03:46.254Z,11.30
2022-09-17T10:08:54.790Z,11.40
2022-09-17T10:14:25.976Z,11.30
2022-09-17T10:19:28.656Z,11.20
2022-09-17T10:24:34.469Z,11.30
2022-09-17T10:29:37.221Z,11.20
2022-09-17T10:34:43.378Z,10.70
2022-09-17T10:39:48.779Z,10.90
2022-09-17T10:45:00.031Z,11.20
2022-09-17T10:50:08.308Z,11.50
2022-09-17T10:55:19.911Z,11.60
2022-09-17T11:00:23.919Z,12.10
2022-09-17T11:05:41.691Z,12.20
2022-09-17T11:11:02.497Z,12.30
2022-09-17T11:16:39.859Z,12.40
2022-09-17T11:22:14.829Z,12.50
2022-09-17T11:27:31.438Z,12.20
2022-09-17T11:32:51.811Z,12.20
2022-09-17T11:38:10.741Z,12.10
2022-09-17T11:43:35.558Z,12.40
2022-09-17T11:48:48.821Z,12.50
2022-09-17T11:54:12.052Z,12.80
2022-09-17T11:59:33.979Z,12.70
2022-09-17T12:04:54.564Z,13.00
2022-09-17T12:10:19.639Z,12.90
2022-09-17T12:15:34.331Z,12.90
2022-09-17T12:20:42.148Z,12.60
2022-09-17T12:25:59.841Z,12.10
2022-09-17T12:31:14.363Z,11.70
2022-09-17T12:36:25.134Z,12.00
2022-09-17T12:42:06.090Z,12.20
2022-09-17T12:47:51.662Z,12.70
2022-09-17T12:53:00.196Z,12.60
2022-09-17T12:58:17.858Z,12.40
2022-09-17T13:03:47.244Z,12.50
2022-09-17T13:09:28.028Z,13.00
2022-09-17T13:14:31.218Z,13.20
2022-09-17T13:19:59.666Z,13.20
2022-09-17T13:25:15.700Z,13.00
2022-09-17T13:30:21.036Z,13.10
2022-09-17T13:35:23.727Z,13.00
2022-09-17T13:40:32.025Z,13.40
2022-09-17T13:45:54.331Z,13.50
2022-09-17T13:50:57.334Z,13.60
2022-09-17T13:56:05.994Z,13.60
2022-09-17T14:01:34.778Z,13.70
2022-09-17T14:06:37.468Z,13.40
2022-09-17T14:11:40.558Z,13.00
2022-09-17T14:16:50.611Z,12.50
2022-09-17T14:21:59.728Z,12.50
2022-09-17T14:27:26.611Z,12.90
2022-09-17T14:32:44.420Z,12.90
2022-09-17T14:38:00.537Z,12.70
2022-09-17T14:43:04.176Z,12.50
2022-09-17T14:48:20.620Z,12.80
2022-09-17T14:53:23.526Z,13.20
2022-09-17T14:58:40.444Z,13.50
2022-09-17T15:03:43.203Z,13.70
2022-09-17T15:08:49.271Z,13.80
2022-09-17T15:13:53.247Z,13.80
2022-09-17T15:18:58.477Z,14.10
2022-09-17T15:24:38.755Z,14.20
2022-09-17T15:29:46.031Z,14.10
2022-09-17T15:35:12.202Z,13.90
2022-09-17T15:40:39.329Z,14.10
2022-09-17T15:45:42.682Z,14.00
2022-09-17T15:50:54.320Z,14.00
2022-09-17T15:56:31.317Z,13.90
2022-09-17T16:01:34.131Z,13.40
2022-09-17T16:06:37.926Z,13.00
2022-09-17T16:11:44.168Z,12.70
2022-09-17T16:16:48.128Z,12.40
2022-09-17T16:21:50.818Z,12.40
2022-09-17T16:26:53.507Z,11.80
2022-09-17T16:31:56.214Z,11.60
2022-09-17T16:36:58.942Z,11.30
2022-09-17T16:42:01.589Z,11.10
2022-09-17T16:47:04.430Z,10.80
2022-09-17T16:52:07.205Z,10.50
2022-09-17T16:57:09.921Z,10.20
2022-09-17T17:02:12.626Z,10.20
2022-09-17T17:07:15.512Z,9.90
2022-09-17T17:12:18.176Z,9.80
2022-09-17T17:17:21.418Z,9.80
2022-09-17T17:22:24.220Z,9.70
2022-09-17T17:27:27.009Z,9.60
2022-09-17T17:32:29.743Z,9.50
2022-09-17T17:37:32.413Z,9.20
2022-09-17T17:42:38.262Z,9.20
2022-09-17T17:47:41.251Z,9.20
2022-09-17T17:52:48.091Z,9.40
2022-09-17T17:58:01.137Z,9.30
2022-09-17T18:03:04.660Z,9.40
2022-09-17T18:08:07.346Z,9.60
2022-09-17T18:13:10.064Z,9.50
2022-09-17T18:18:12.728Z,9.40
2022-09-17T18:23:15.608Z,9.50
2022-09-17T18:28:18.287Z,9.50
2022-09-17T18:33:25.846Z,9.60
2022-09-17T18:38:28.672Z,9.60
2022-09-17T18:43:33.059Z,9.70
2022-09-17T18:48:36.657Z,9.50
2022-09-17T18:53:39.925Z,9.50
2022-09-17T18:58:44.827Z,9.60
2022-09-17T19:03:47.662Z,9.50
2022-09-17T19:08:51.428Z,9.50
2022-09-17T19:13:54.120Z,9.30
2022-09-17T19:18:56.867Z,9.20
2022-09-17T19:23:59.513Z,9.10
2022-09-17T19:29:02.203Z,9.30
2022-09-17T19:34:05.068Z,9.20
2022-09-17T19:39:07.767Z,9.20
2022-09-17T19:44:10.622Z,8.90
2022-09-17T19:49:13.971Z,8.80
2022-09-17T19:54:16.637Z,8.60
2022-09-17T19:59:19.280Z,8.70
2022-09-17T20:04:22.040Z,8.50
2022-09-17T20:09:24.715Z,8.40
2022-09-17T20:14:28.372Z,8.40
2022-09-17T20:19:31.084Z,8.20
2022-09-17T20:24:34.128Z,8.00
2022-09-17T20:29:36.873Z,7.90
2022-09-17T20:34:39.692Z,7.90
2022-09-17T20:39:42.581Z,7.90
2022-09-17T20:44:45.249Z,8.00
2022-09-17T20:49:48.169Z,7.90
2022-09-17T20:54:50.847Z,7.80
2022-09-17T20:59:55.657Z,7.70
2022-09-17T21:04:58.345Z,7.60
2022-09-17T21:10:01.113Z,7.50
2022-09-17T21:15:04.207Z,7.60
2022-09-17T21:20:07.474Z,7.60
2022-09-17T21:25:10.239Z,7.70
2022-09-17T21:30:13.361Z,7.50
2022-09-17T21:35:16.031Z,7.50
2022-09-17T21:40:18.692Z,7.60
2022-09-17T21:45:21.359Z,7.50
2022-09-17T21:50:24.067Z,7.50
2022-09-17T21:55:27.723Z,7.40
2022-09-17T22:00:31.381Z,7.50
2022-09-17T22:05:34.083Z,7.50
2022-09-17T22:10:36.819Z,7.60
2022-09-17T22:15:39.532Z,7.50
2022-09-17T22:20:42.217Z,7.50
2022-09-17T22:25:45.044Z,7.30
2022-09-17T22:30:47.846Z,7.10
2022-09-17T22:35:50.569Z,7.10
2022-09-17T22:40:54.642Z,7.10
2022-09-17T22:45:57.261Z,7.20
2022-09-17T22:51:01.183Z,7.20
2022-09-17T22:56:06.483Z,7.20
2022-09-17T23:01:11.999Z,7.20
2022-09-17T23:06:17.467Z,7.10
2022-09-17T23:11:28.815Z,7.10
2022-09-17T23:16:36.901Z,7.10
2022-09-17T23:21:40.085Z,7.20
2022-09-17T23:26:42.737Z,7.20
2022-09-17T23:31:45.537Z,7.20
2022-09-17T23:36:48.557Z,7.30
2022-09-17T23:41:51.199Z,7.30
2022-09-17T23:46:53.920Z,7.30
2022-09-17T23:51:56.544Z,7.20
2022-09-17T23:56:59.247Z,7.30
